createdAt,value
2018-04-01T00:00:59.704Z,8.83
2018-04-01T00:01:59.614Z,8.73
2018-04-01T00:02:59.448Z,8.60
2018-04-01T00:03:59.486Z,8.61
2018-04-01T00:04:59.289Z,8.61
2018-04-01T00:05:59.344Z,8.54
2018-04-01T00:06:59.155Z,8.60
2018-04-01T00:07:59.143Z,8.47
2018-04-01T00:08:59.004Z,8.50
2018-04-01T00:09:58.954Z,8.54
2018-04-01T00:10:58.829Z,8.55
2018-04-01T00:11:58.800Z,8.40
2018-04-01T00:12:58.685Z,8.42
2018-04-01T00:13:58.666Z,8.31
2018-04-01T00:14:58.486Z,8.32
2018-04-01T00:15:58.483Z,8.29
2018-04-01T00:16:58.353Z,8.31
2018-04-01T00:17:58.284Z,8.29
2018-04-01T00:18:58.162Z,8.21
2018-04-01T00:19:58.197Z,8.21
2018-04-01T00:20:58.018Z,8.24
2018-04-01T00:21:58.059Z,8.21
2018-04-01T00:22:57.856Z,8.25
2018-04-01T00:23:57.888Z,8.36
2018-04-01T00:24:57.692Z,8.17
2018-04-01T00:25:57.721Z,8.18
2018-04-01T00:26:57.540Z,8.27
2018-04-01T00:27:57.459Z,8.24
2018-04-01T00:28:57.361Z,8.24
2018-04-01T00:29:57.338Z,8.25
2018-04-01T00:30:57.198Z,8.20
2018-04-01T00:31:57.189Z,8.22
2018-04-01T00:32:57.039Z,8.24
2018-04-01T00:33:57.060Z,8.20
2018-04-01T00:34:56.879Z,8.22
2018-04-01T00:35:56.870Z,8.18
2018-04-01T00:36:56.738Z,8.18
2018-04-01T00:37:56.721Z,8.18
2018-04-01T00:38:56.568Z,8.07
2018-04-01T00:39:56.634Z,8.12
2018-04-01T00:40:56.389Z,8.06
2018-04-01T00:41:56.395Z,8.07
2018-04-01T00:42:56.265Z,8.09
2018-04-01T00:43:56.204Z,8.21
2018-04-01T00:44:56.072Z,8.14
2018-04-01T00:45:56.116Z,8.09
2018-04-01T00:46:55.911Z,8.07
2018-04-01T00:47:55.958Z,8.09
2018-04-01T00:48:55.773Z,8.04
2018-04-01T00:49:55.738Z,8.04
2018-04-01T00:50:55.593Z,7.99
2018-04-01T00:51:55.538Z,8.02
2018-04-01T00:52:55.433Z,8.03
2018-04-01T00:53:55.488Z,8.00
2018-04-01T00:54:55.269Z,8.07
2018-04-01T00:55:55.270Z,8.04
2018-04-01T00:56:55.194Z,8.00
2018-04-01T00:57:55.079Z,8.03
2018-04-01T00:58:54.956Z,7.99
2018-04-01T00:59:55.798Z,8.02
2018-04-01T01:00:54.784Z,8.07
2018-04-01T01:01:54.793Z,8.02
2018-04-01T01:02:55.217Z,8.00
2018-04-01T01:03:54.622Z,8.00
2018-04-01T01:04:54.476Z,7.96
2018-04-01T01:05:54.505Z,8.03
2018-04-01T01:06:54.294Z,7.95
2018-04-01T01:07:54.313Z,7.88
2018-04-01T01:08:54.155Z,7.96
2018-04-01T01:09:54.152Z,7.89
2018-04-01T01:10:53.972Z,7.91
2018-04-01T01:11:53.952Z,7.91
2018-04-01T01:12:53.826Z,7.92
2018-04-01T01:13:53.855Z,7.99
2018-04-01T01:14:54.635Z,8.07
2018-04-01T01:15:53.652Z,8.00
2018-04-01T01:16:53.546Z,7.96
2018-04-01T01:17:53.498Z,7.89
2018-04-01T01:18:53.332Z,7.81
2018-04-01T01:19:53.303Z,7.73
2018-04-01T01:20:53.169Z,7.70
2018-04-01T01:21:53.177Z,7.70
2018-04-01T01:22:53.002Z,7.63
2018-04-01T01:23:52.982Z,7.66
2018-04-01T01:24:52.861Z,7.70
2018-04-01T01:25:52.797Z,7.76
2018-04-01T01:26:52.685Z,7.76
2018-04-01T01:27:52.705Z,7.76
2018-04-01T01:28:52.545Z,7.76
2018-04-01T01:29:52.648Z,7.69
2018-04-01T01:30:52.380Z,7.66
2018-04-01T01:31:52.324Z,7.71
2018-04-01T01:32:52.256Z,7.73
2018-04-01T01:33:52.231Z,7.86
2018-04-01T01:34:52.061Z,7.84
2018-04-01T01:35:52.275Z,7.79
2018-04-01T01:36:51.874Z,7.79
2018-04-01T01:37:52.462Z,7.86
2018-04-01T01:38:51.719Z,7.82
2018-04-01T01:39:51.765Z,7.85
2018-04-01T01:40:51.560Z,7.84
2018-04-01T01:41:51.566Z,7.86
2018-04-01T01:42:51.383Z,7.84
2018-04-01T01:43:51.376Z,7.88
2018-04-01T01:44:51.226Z,7.92
2018-04-01T01:45:51.217Z,7.94
2018-04-01T01:46:51.055Z,7.99
2018-04-01T01:47:51.107Z,7.92
2018-04-01T01:48:50.899Z,7.89
2018-04-01T01:49:50.942Z,7.91
2018-04-01T01:50:50.735Z,7.79
2018-04-01T01:51:50.714Z,7.86
2018-04-01T01:52:50.650Z,7.94
2018-04-01T01:53:50.623Z,7.84
2018-04-01T01:54:50.440Z,7.84
2018-04-01T01:55:50.430Z,7.92
2018-04-01T01:56:50.278Z,7.84
2018-04-01T01:57:50.244Z,7.71
2018-04-01T01:58:50.094Z,7.81
2018-04-01T01:59:50.046Z,7.76
2018-04-01T02:00:49.944Z,7.69
2018-04-01T02:01:49.993Z,7.73
2018-04-01T02:02:49.779Z,7.73
2018-04-01T02:03:49.768Z,7.66
2018-04-01T02:04:49.609Z,7.74
2018-04-01T02:05:49.709Z,7.70
2018-04-01T02:06:49.444Z,7.76
2018-04-01T02:07:49.427Z,7.74
2018-04-01T02:08:49.285Z,7.71
2018-04-01T02:09:49.302Z,7.81
2018-04-01T02:10:49.121Z,7.73
2018-04-01T02:11:49.105Z,7.71
2018-04-01T02:12:48.977Z,7.66
2018-04-01T02:13:48.917Z,7.58
2018-04-01T02:14:48.800Z,7.48
2018-04-01T02:15:48.834Z,7.51
2018-04-01T02:16:48.668Z,7.50
2018-04-01T02:17:48.704Z,7.44
2018-04-01T02:18:48.472Z,7.47
2018-04-01T02:19:48.439Z,7.47
2018-04-01T02:20:48.309Z,7.55
2018-04-01T02:21:48.309Z,7.54
2018-04-01T02:22:48.182Z,7.66
2018-04-01T02:23:48.191Z,7.69
2018-04-01T02:24:47.989Z,7.66
2018-04-01T02:25:48.067Z,7.71
2018-04-01T02:26:47.828Z,7.73
2018-04-01T02:27:47.786Z,7.71
2018-04-01T02:28:47.794Z,7.70
2018-04-01T02:29:47.685Z,7.66
2018-04-01T02:30:47.505Z,7.67
2018-04-01T02:31:47.551Z,7.66
2018-04-01T02:32:47.370Z,7.74
2018-04-01T02:33:47.351Z,7.84
2018-04-01T02:34:47.180Z,7.71
2018-04-01T02:35:47.213Z,7.84
2018-04-01T02:36:47.020Z,7.71
2018-04-01T02:37:47.035Z,7.71
2018-04-01T02:38:46.879Z,7.62
2018-04-01T02:39:46.829Z,7.51
2018-04-01T02:40:46.703Z,7.55
2018-04-01T02:41:46.752Z,7.60
2018-04-01T02:42:46.536Z,7.52
2018-04-01T02:43:46.588Z,7.55
2018-04-01T02:44:46.383Z,7.58
2018-04-01T02:45:46.356Z,7.58
2018-04-01T02:46:46.204Z,7.51
2018-04-01T02:47:46.171Z,7.60
2018-04-01T02:48:46.069Z,7.63
2018-04-01T02:49:46.107Z,7.66
2018-04-01T02:50:45.891Z,7.55
2018-04-01T02:51:45.881Z,7.54
2018-04-01T02:52:45.736Z,7.47
2018-04-01T02:53:45.724Z,7.57
2018-04-01T02:54:45.562Z,7.54
2018-04-01T02:55:45.606Z,7.55
2018-04-01T02:56:45.401Z,7.55
2018-04-01T02:57:45.418Z,7.47
2018-04-01T02:58:45.329Z,7.45
2018-04-01T02:59:45.233Z,7.48
2018-04-01T03:00:45.091Z,7.47
2018-04-01T03:01:45.124Z,7.47
2018-04-01T03:02:44.910Z,7.45
2018-04-01T03:03:44.948Z,7.51
2018-04-01T03:04:44.776Z,7.51
2018-04-01T03:07:26.637Z,7.58
2018-04-01T03:08:26.645Z,7.62
2018-04-01T03:09:26.478Z,7.71
2018-04-01T03:10:26.453Z,7.69
2018-04-01T03:11:26.308Z,7.67
2018-04-01T03:12:26.261Z,7.70
2018-04-01T03:13:26.144Z,7.73
2018-04-01T03:14:26.198Z,7.77
2018-04-01T03:15:26.006Z,7.70
2018-04-01T03:35:48.459Z,8.04
2018-04-01T03:36:48.281Z,7.96
2018-04-01T03:37:48.242Z,8.02
2018-04-01T03:38:48.116Z,8.03
2018-04-01T03:39:48.150Z,8.02
2018-04-01T03:40:47.996Z,8.09
2018-04-01T03:41:47.987Z,8.04
2018-04-01T03:42:47.814Z,7.99
2018-04-01T03:43:47.779Z,7.92
2018-04-01T03:44:47.637Z,7.96
2018-04-01T03:45:47.675Z,7.96
2018-04-01T03:46:47.492Z,8.00
2018-04-01T03:47:47.484Z,7.82
2018-04-01T03:48:47.311Z,7.76
2018-04-01T03:49:47.291Z,7.55
2018-04-01T03:50:47.154Z,7.48
2018-04-01T03:51:47.143Z,7.42
2018-04-01T03:52:46.992Z,7.27
2018-04-01T03:53:47.010Z,7.19
2018-04-01T03:54:46.829Z,7.27
2018-04-01T03:57:29.148Z,7.15
2018-04-01T03:58:29.124Z,7.14
2018-04-01T03:59:28.993Z,7.15
2018-04-01T04:00:28.938Z,7.05
2018-04-01T04:01:28.812Z,7.05
2018-04-01T04:02:28.895Z,6.94
2018-04-01T04:03:28.648Z,6.93
2018-04-01T04:04:28.659Z,6.93
2018-04-01T04:06:53.165Z,6.83
2018-04-01T04:07:53.144Z,6.93
2018-04-01T04:08:52.990Z,6.93
2018-04-01T04:09:52.955Z,6.93
2018-04-01T04:10:52.810Z,6.99
2018-04-01T04:11:52.816Z,7.00
2018-04-01T04:12:52.669Z,6.90
2018-04-01T04:13:52.704Z,6.89
2018-04-01T04:14:52.493Z,7.08
2018-04-01T04:15:52.482Z,6.99
2018-04-01T04:16:52.324Z,6.87
2018-04-01T04:17:52.317Z,6.91
2018-04-01T04:18:52.158Z,6.89
2018-04-01T04:19:52.201Z,6.96
2018-04-01T04:20:52.004Z,6.90
2018-04-01T04:21:52.016Z,6.93
2018-04-01T04:22:51.854Z,6.93
2018-04-01T04:23:51.817Z,6.90
2018-04-01T04:24:51.669Z,6.87
2018-04-01T04:25:51.782Z,6.79
2018-04-01T04:26:51.512Z,6.78
2018-04-01T04:27:51.567Z,6.76
2018-04-01T04:28:51.343Z,6.82
2018-04-01T04:29:51.350Z,6.79
2018-04-01T04:30:51.215Z,6.81
2018-04-01T04:31:51.157Z,6.81
2018-04-01T04:32:51.031Z,6.68
2018-04-01T04:33:51.077Z,6.71
2018-04-01T04:34:50.869Z,6.68
2018-04-01T04:35:50.908Z,6.68
2018-04-01T04:36:50.734Z,6.73
2018-04-01T04:37:50.714Z,6.68
2018-04-01T04:38:50.562Z,6.65
2018-04-01T04:39:50.495Z,6.68
2018-04-01T04:40:50.377Z,6.81
2018-04-01T04:41:50.402Z,6.72
2018-04-01T04:42:50.241Z,6.78
2018-04-01T04:43:50.205Z,6.69
2018-04-01T04:44:50.045Z,6.72
2018-04-01T04:45:50.018Z,6.71
2018-04-01T04:46:49.888Z,6.75
2018-04-01T04:47:49.949Z,6.73
2018-04-01T04:48:49.739Z,6.76
2018-04-01T04:49:49.732Z,6.75
2018-04-01T04:50:49.560Z,6.81
2018-04-01T04:51:49.552Z,6.72
2018-04-01T04:52:49.397Z,6.79
2018-04-01T04:53:49.381Z,6.86
2018-04-01T04:54:49.233Z,6.81
2018-04-01T04:55:49.289Z,6.79
2018-04-01T04:56:49.068Z,6.89
2018-04-01T04:57:49.071Z,6.94
2018-04-01T04:58:48.915Z,6.97
2018-04-01T04:59:48.913Z,6.93
2018-04-01T05:00:48.769Z,7.01
2018-04-01T05:01:48.791Z,6.97
2018-04-01T05:02:48.601Z,6.97
2018-04-01T05:03:48.629Z,6.96
2018-04-01T05:04:48.422Z,6.97
2018-04-01T05:05:48.450Z,7.00
2018-04-01T05:06:48.255Z,6.94
2018-04-01T05:07:48.214Z,6.94
2018-04-01T05:08:48.090Z,6.99
2018-04-01T05:09:48.156Z,7.01
2018-04-01T05:10:47.935Z,6.93
2018-04-01T05:11:47.937Z,6.87
2018-04-01T05:12:47.765Z,6.94
2018-04-01T05:13:47.784Z,6.94
2018-04-01T05:14:47.736Z,6.97
2018-04-01T05:15:47.664Z,6.99
2018-04-01T05:16:47.446Z,7.01
2018-04-01T05:17:47.489Z,7.08
2018-04-01T05:18:47.298Z,7.04
2018-04-01T05:19:47.271Z,7.12
2018-04-01T05:20:47.140Z,7.24
2018-04-01T05:21:47.111Z,7.27
2018-04-01T05:22:46.957Z,7.23
2018-04-01T05:23:46.987Z,7.27
2018-04-01T05:24:46.795Z,7.27
2018-04-01T05:25:46.804Z,7.37
2018-04-01T05:26:46.632Z,7.34
2018-04-01T05:27:46.640Z,7.32
2018-04-01T05:28:46.480Z,7.34
2018-04-01T05:29:46.516Z,7.33
2018-04-01T05:30:46.316Z,7.51
2018-04-01T05:31:46.329Z,7.45
2018-04-01T05:32:46.161Z,7.47
2018-04-01T05:33:46.141Z,7.39
2018-04-01T05:34:46.105Z,7.45
2018-04-01T05:35:45.946Z,7.50
2018-04-01T05:36:45.825Z,7.48
2018-04-01T05:37:45.900Z,7.58
2018-04-01T05:38:45.688Z,7.67
2018-04-01T05:39:45.691Z,7.73
2018-04-01T05:40:45.500Z,7.74
2018-04-01T05:41:45.468Z,7.74
2018-04-01T05:42:45.353Z,7.63
2018-04-01T05:43:45.387Z,7.54
2018-04-01T05:44:45.199Z,7.55
2018-04-01T05:45:45.189Z,7.51
2018-04-01T05:46:45.022Z,7.57
2018-04-01T05:47:45.028Z,7.48
2018-04-01T05:48:44.875Z,7.57
2018-04-01T05:49:44.844Z,7.52
2018-04-01T05:50:44.694Z,7.50
2018-04-01T05:51:44.725Z,7.55
2018-04-01T05:52:44.540Z,7.60
2018-04-01T05:53:44.524Z,7.62
2018-04-01T05:54:44.415Z,7.51
2018-04-01T05:55:44.335Z,7.50
2018-04-01T05:56:44.208Z,7.62
2018-04-01T05:57:44.248Z,7.48
2018-04-01T05:58:44.109Z,7.57
2018-04-01T05:59:44.052Z,7.60
2018-04-01T06:00:43.885Z,7.60
2018-04-01T06:01:43.862Z,7.67
2018-04-01T06:02:43.727Z,7.60
2018-04-01T06:03:43.699Z,7.66
2018-04-01T06:04:43.593Z,7.63
2018-04-01T06:05:43.582Z,7.70
2018-04-01T06:06:43.407Z,7.70
2018-04-01T06:07:43.388Z,7.63
2018-04-01T06:08:43.241Z,7.57
2018-04-01T06:09:43.226Z,7.62
2018-04-01T06:10:43.127Z,7.70
2018-04-01T06:11:43.109Z,7.50
2018-04-01T06:12:42.919Z,7.47
2018-04-01T06:13:43.725Z,7.60
2018-04-01T06:14:42.782Z,7.67
2018-04-01T06:15:42.721Z,7.73
2018-04-01T06:16:42.592Z,7.73
2018-04-01T06:17:42.645Z,7.73
2018-04-01T06:18:42.429Z,7.71
2018-04-01T06:19:42.450Z,7.74
2018-04-01T06:20:42.288Z,7.58
2018-04-01T06:21:42.258Z,7.71
2018-04-01T06:22:42.105Z,7.74
2018-04-01T06:23:42.070Z,8.03
2018-04-01T06:24:41.949Z,7.94
2018-04-01T06:25:42.005Z,7.91
2018-04-01T06:26:41.798Z,7.84
2018-04-01T06:27:41.781Z,7.77
2018-04-01T06:28:41.626Z,7.84
2018-04-01T06:29:41.596Z,8.00
2018-04-01T06:30:41.538Z,8.03
2018-04-01T06:31:41.504Z,8.12
2018-04-01T06:32:41.295Z,8.10
2018-04-01T06:33:41.337Z,8.02
2018-04-01T06:34:41.140Z,7.71
2018-04-01T06:35:41.171Z,7.52
2018-04-01T06:36:40.976Z,7.42
2018-04-01T06:37:40.976Z,7.26
2018-04-01T06:38:40.820Z,7.24
2018-04-01T06:39:40.841Z,7.27
2018-04-01T06:40:40.682Z,7.26
2018-04-01T06:41:40.654Z,7.16
2018-04-01T06:42:40.493Z,7.23
2018-04-01T06:43:40.556Z,7.21
2018-04-01T06:44:40.328Z,7.15
2018-04-01T06:45:40.408Z,7.21
2018-04-01T06:46:40.294Z,7.09
2018-04-01T06:47:40.240Z,7.07
2018-04-01T06:48:40.015Z,7.08
2018-04-01T06:49:39.993Z,6.93
2018-04-01T06:50:39.879Z,6.83
2018-04-01T06:51:39.834Z,6.91
2018-04-01T06:52:39.689Z,6.97
2018-04-01T06:53:39.709Z,6.96
2018-04-01T06:54:39.524Z,6.94
2018-04-01T06:55:39.511Z,7.01
2018-04-01T06:56:39.383Z,7.08
2018-04-01T06:57:39.322Z,7.14
2018-04-01T06:58:39.198Z,7.18
2018-04-01T06:59:39.230Z,7.18
2018-04-01T07:00:39.036Z,7.16
2018-04-01T07:01:39.073Z,7.05
2018-04-01T07:02:38.882Z,7.12
2018-04-01T07:03:38.844Z,7.16
2018-04-01T07:04:38.724Z,7.16
2018-04-01T07:05:38.765Z,7.08
2018-04-01T07:06:38.671Z,7.11
2018-04-01T07:07:38.604Z,7.04
2018-04-01T07:08:38.408Z,7.07
2018-04-01T07:09:38.518Z,7.15
2018-04-01T07:10:38.231Z,7.14
2018-04-01T07:11:38.206Z,7.24
2018-04-01T07:12:38.088Z,7.29
2018-04-01T07:13:38.133Z,7.24
2018-04-01T07:14:37.907Z,7.33
2018-04-01T07:15:37.973Z,7.30
2018-04-01T07:16:37.736Z,7.26
2018-04-01T07:17:37.752Z,7.27
2018-04-01T07:18:37.616Z,7.34
2018-04-01T07:19:37.619Z,7.29
2018-04-01T07:20:37.437Z,7.41
2018-04-01T07:21:37.428Z,7.44
2018-04-01T07:22:37.257Z,7.47
2018-04-01T07:23:37.305Z,7.55
2018-04-01T07:24:37.098Z,7.60
2018-04-01T07:25:37.046Z,7.73
2018-04-01T07:26:36.930Z,7.70
2018-04-01T07:27:36.952Z,7.42
2018-04-01T07:28:37.696Z,7.34
2018-04-01T07:29:37.845Z,7.45
2018-04-01T07:30:36.601Z,7.45
2018-04-01T07:31:36.578Z,7.47
2018-04-01T07:32:36.460Z,7.54
2018-04-01T07:33:36.501Z,7.51
2018-04-01T07:34:36.302Z,7.39
2018-04-01T07:35:36.318Z,7.37
2018-04-01T07:36:36.120Z,7.41
2018-04-01T07:37:36.096Z,7.37
2018-04-01T07:38:35.959Z,7.34
2018-04-01T07:39:36.009Z,7.41
2018-04-01T07:40:35.806Z,7.44
2018-04-01T07:41:35.859Z,7.34
2018-04-01T07:42:35.640Z,7.34
2018-04-01T07:43:35.653Z,7.39
2018-04-01T07:44:35.468Z,7.39
2018-04-01T07:45:35.466Z,7.24
2018-04-01T07:46:35.319Z,7.26
2018-04-01T07:47:35.290Z,7.23
2018-04-01T07:48:35.160Z,7.18
2018-04-01T07:49:35.159Z,7.16
2018-04-01T07:50:35.013Z,7.18
2018-04-01T07:51:34.963Z,7.26
2018-04-01T07:52:34.824Z,7.19
2018-04-01T07:53:34.866Z,7.11
2018-04-01T07:54:34.713Z,7.12
2018-04-01T07:55:34.717Z,7.12
2018-04-01T07:56:34.498Z,7.19
2018-04-01T07:57:34.512Z,7.19
2018-04-01T07:58:34.351Z,7.18
2018-04-01T07:59:34.404Z,7.26
2018-04-01T08:00:34.194Z,7.18
2018-04-01T08:01:34.209Z,7.14
2018-04-01T08:02:34.025Z,7.15
2018-04-01T08:03:34.236Z,7.19
2018-04-01T08:04:33.879Z,7.14
2018-04-01T08:05:34.487Z,7.30
2018-04-01T08:06:33.711Z,7.30
2018-04-01T08:07:33.752Z,7.27
2018-04-01T08:08:33.530Z,7.23
2018-04-01T08:09:33.542Z,7.09
2018-04-01T08:10:33.396Z,7.15
2018-04-01T08:11:33.350Z,7.19
2018-04-01T08:12:33.746Z,7.15
2018-04-01T08:13:33.158Z,7.18
2018-04-01T08:14:33.053Z,7.16
2018-04-01T08:15:33.116Z,7.26
2018-04-01T08:16:32.889Z,7.27
2018-04-01T08:17:32.895Z,7.37
2018-04-01T08:18:32.728Z,7.26
2018-04-01T08:19:32.695Z,7.27
2018-04-01T08:20:33.281Z,7.24
2018-04-01T08:21:32.533Z,7.15
2018-04-01T08:22:32.402Z,7.12
2018-04-01T08:23:32.412Z,7.15
2018-04-01T08:24:32.235Z,7.24
2018-04-01T08:25:32.224Z,7.24
2018-04-01T08:26:32.083Z,7.29
2018-04-01T08:27:32.029Z,7.29
2018-04-01T08:28:31.914Z,7.32
2018-04-01T08:31:14.267Z,7.36
2018-04-01T08:32:14.146Z,7.48
2018-04-01T08:33:14.016Z,7.41
2018-04-01T08:34:14.058Z,7.48
2018-04-01T08:35:13.854Z,7.55
2018-04-01T08:36:13.901Z,7.55
2018-04-01T08:37:13.727Z,7.50
2018-04-01T08:38:13.666Z,7.50
2018-04-01T08:39:13.565Z,7.51
2018-04-01T08:40:13.583Z,7.60
2018-04-01T08:41:13.370Z,7.69
2018-04-01T08:42:13.444Z,7.70
2018-04-01T08:43:13.203Z,7.73
2018-04-01T08:44:13.199Z,7.82
2018-04-01T08:45:13.100Z,7.81
2018-04-01T08:46:13.009Z,7.92
2018-04-01T08:47:12.906Z,7.92
2018-04-01T08:48:12.915Z,7.96
2018-04-01T08:49:12.729Z,7.96
2018-04-01T08:50:12.720Z,7.88
2018-04-01T08:51:12.567Z,8.00
2018-04-01T08:52:12.588Z,7.95
2018-04-01T08:53:12.448Z,8.12
2018-04-01T08:54:12.517Z,8.02
2018-04-01T08:55:12.252Z,8.04
2018-04-01T08:56:12.253Z,7.94
2018-04-01T08:57:12.118Z,7.92
2018-04-01T08:58:12.060Z,7.88
2018-04-01T08:59:11.923Z,7.94
2018-04-01T09:00:11.865Z,7.88
2018-04-01T09:01:11.760Z,7.91
2018-04-01T09:02:11.835Z,7.71
2018-04-01T09:03:11.598Z,7.73
2018-04-01T09:04:11.630Z,7.70
2018-04-01T09:05:11.462Z,7.62
2018-04-01T09:06:11.412Z,7.60
2018-04-01T09:07:11.286Z,7.63
2018-04-01T09:08:11.307Z,7.66
2018-04-01T09:09:11.100Z,7.66
2018-04-01T09:10:11.116Z,7.52
2018-04-01T09:11:10.992Z,7.45
2018-04-01T09:12:10.931Z,7.45
2018-04-01T09:13:10.815Z,7.58
2018-04-01T09:14:10.837Z,7.57
2018-04-01T09:15:10.628Z,7.63
2018-04-01T09:16:10.637Z,7.58
2018-04-01T09:17:10.468Z,7.58
2018-04-01T09:18:10.491Z,7.47
2018-04-01T09:19:10.295Z,7.54
2018-04-01T09:21:52.213Z,7.41
2018-04-01T09:22:52.158Z,7.24
2018-04-01T09:23:52.051Z,7.34
2018-04-01T09:24:52.060Z,7.23
2018-04-01T09:25:51.866Z,7.24
2018-04-01T09:26:51.885Z,7.21
2018-04-01T09:27:51.719Z,7.19
2018-04-01T09:28:51.714Z,7.21
2018-04-01T09:29:51.548Z,7.23
2018-04-01T09:30:51.491Z,7.23
2018-04-01T09:31:51.379Z,7.24
2018-04-01T09:32:51.317Z,7.19
2018-04-01T09:33:51.239Z,7.32
2018-04-01T09:34:51.211Z,7.32
2018-04-01T09:35:51.064Z,7.24
2018-04-01T09:36:51.074Z,7.30
2018-04-01T09:37:50.912Z,7.37
2018-04-01T09:38:51.009Z,7.33
2018-04-01T09:39:50.733Z,7.45
2018-04-01T09:40:50.732Z,7.47
2018-04-01T09:41:50.587Z,7.30
2018-04-01T09:42:50.537Z,7.48
2018-04-01T09:43:50.455Z,7.32
2018-04-01T09:44:50.525Z,7.47
2018-04-01T09:45:50.255Z,7.36
2018-04-01T09:46:50.266Z,7.47
2018-04-01T09:47:50.206Z,7.30
2018-04-01T09:48:50.075Z,7.41
2018-04-01T09:49:49.952Z,7.54
2018-04-01T09:50:49.876Z,7.55
2018-04-01T09:51:49.761Z,7.58
2018-04-01T09:52:49.791Z,7.70
2018-04-01T09:53:49.603Z,7.67
2018-04-01T09:54:49.629Z,7.58
2018-04-01T09:55:49.434Z,7.52
2018-04-01T09:56:49.416Z,7.51
2018-04-01T09:57:49.308Z,7.52
2018-04-01T09:58:49.319Z,7.48
2018-04-01T09:59:49.131Z,7.51
2018-04-01T10:00:49.124Z,7.58
2018-04-01T10:01:48.948Z,7.66
2018-04-01T10:04:31.198Z,7.71
2018-04-01T10:05:52.151Z,7.51
2018-04-01T10:06:31.046Z,7.60
2018-04-01T10:07:31.045Z,7.63
2018-04-01T10:08:30.870Z,7.70
2018-04-01T10:09:30.871Z,7.70
2018-04-01T10:10:30.732Z,7.77
2018-04-01T10:11:30.658Z,7.85
2018-04-01T10:12:30.549Z,7.81
2018-04-01T10:13:30.571Z,7.70
2018-04-01T10:14:30.411Z,7.67
2018-04-01T10:15:30.408Z,7.69
2018-04-01T10:16:30.240Z,7.62
2018-04-01T10:17:30.192Z,7.51
2018-04-01T10:18:30.062Z,7.51
2018-04-01T10:19:30.108Z,7.55
2018-04-01T10:20:30.003Z,7.60
2018-04-01T10:21:29.918Z,7.55
2018-04-01T10:22:29.742Z,7.52
2018-04-01T10:23:29.767Z,7.52
2018-04-01T10:24:29.586Z,7.62
2018-04-01T10:25:29.536Z,7.71
2018-04-01T10:26:29.444Z,7.74
2018-04-01T10:27:29.440Z,7.76
2018-04-01T10:28:29.260Z,7.73
2018-04-01T10:29:29.247Z,7.86
2018-04-01T10:30:29.113Z,7.96
2018-04-01T10:31:29.081Z,7.89
2018-04-01T10:32:28.929Z,7.91
2018-04-01T10:33:28.975Z,7.86
2018-04-01T10:34:28.765Z,7.91
2018-04-01T10:35:28.768Z,7.86
2018-04-01T10:36:28.646Z,7.85
2018-04-01T10:37:28.587Z,7.86
2018-04-01T10:38:28.443Z,7.77
2018-04-01T10:39:28.571Z,7.91
2018-04-01T10:40:28.286Z,7.95
2018-04-01T10:41:28.339Z,7.91
2018-04-01T10:42:28.132Z,7.88
2018-04-01T10:43:28.136Z,7.81
2018-04-01T10:44:27.958Z,7.77
2018-04-01T10:45:27.916Z,7.82
2018-04-01T10:46:27.833Z,7.91
2018-04-01T10:47:27.829Z,7.88
2018-04-01T10:48:27.660Z,7.95
2018-04-01T10:49:27.674Z,7.94
2018-04-01T10:50:27.475Z,7.92
2018-04-01T10:51:27.479Z,7.81
2018-04-01T10:52:27.343Z,7.84
2018-04-01T10:53:27.430Z,7.77
2018-04-01T10:54:27.159Z,7.73
2018-04-01T10:55:27.170Z,7.86
2018-04-01T10:56:27.011Z,7.69
2018-04-01T10:57:26.974Z,7.74
2018-04-01T10:58:26.844Z,7.71
2018-04-01T10:59:26.830Z,7.71
2018-04-01T11:00:26.675Z,7.88
2018-04-01T11:01:26.695Z,7.92
2018-04-01T11:02:26.512Z,7.92
2018-04-01T11:03:26.545Z,7.96
2018-04-01T11:04:26.348Z,7.96
2018-04-01T11:05:26.309Z,8.17
2018-04-01T11:06:26.207Z,8.39
2018-04-01T11:07:26.233Z,8.54
2018-04-01T11:08:26.050Z,8.50
2018-04-01T11:09:26.053Z,8.45
2018-04-01T11:10:25.874Z,8.34
2018-04-01T11:11:25.894Z,8.28
2018-04-01T11:12:25.700Z,8.39
2018-04-01T11:13:25.683Z,8.40
2018-04-01T11:14:25.561Z,8.45
2018-04-01T11:15:25.552Z,8.49
2018-04-01T11:16:25.490Z,8.61
2018-04-01T11:17:25.493Z,8.49
2018-04-01T11:18:25.207Z,8.57
2018-04-01T11:19:25.212Z,8.57
2018-04-01T11:20:25.053Z,8.63
2018-04-01T11:21:25.094Z,8.83
2018-04-01T11:22:24.885Z,8.70
2018-04-01T11:23:24.887Z,8.79
2018-04-01T11:24:24.770Z,8.65
2018-04-01T11:25:24.725Z,8.61
2018-04-01T11:26:24.587Z,8.49
2018-04-01T11:27:24.605Z,8.37
2018-04-01T11:28:24.417Z,8.29
2018-04-01T11:29:24.462Z,8.32
2018-04-01T11:30:24.268Z,8.42
2018-04-01T11:31:24.228Z,8.45
2018-04-01T11:32:24.111Z,8.45
2018-04-01T11:33:24.142Z,8.39
2018-04-01T11:34:23.951Z,8.37
2018-04-01T11:35:23.980Z,8.36
2018-04-01T11:36:23.764Z,8.25
2018-04-01T11:37:23.776Z,8.20
2018-04-01T11:38:23.609Z,8.10
2018-04-01T11:39:23.598Z,8.13
2018-04-01T11:40:23.472Z,8.06
2018-04-01T11:41:23.473Z,8.06
2018-04-01T11:42:23.277Z,8.03
2018-04-01T11:43:23.902Z,8.07
2018-04-01T11:44:23.129Z,8.18
2018-04-01T11:45:23.120Z,8.20
2018-04-01T11:46:22.966Z,8.49
2018-04-01T11:47:23.014Z,8.76
2018-04-01T11:48:22.800Z,8.60
2018-04-01T11:49:22.884Z,8.47
2018-04-01T11:50:22.692Z,8.58
2018-04-01T11:51:22.618Z,8.61
2018-04-01T11:52:22.472Z,8.73
2018-04-01T11:53:22.436Z,8.68
2018-04-01T11:54:22.328Z,8.79
2018-04-01T11:55:22.342Z,8.88
2018-04-01T11:56:22.175Z,8.83
2018-04-01T11:57:22.146Z,9.13
2018-04-01T11:58:22.021Z,9.01
2018-04-01T11:59:21.958Z,8.93
2018-04-01T12:00:21.829Z,8.91
2018-04-01T12:01:21.895Z,9.23
2018-04-01T12:02:21.687Z,9.34
2018-04-01T12:03:21.706Z,9.31
2018-04-01T12:04:21.514Z,9.58
2018-04-01T12:05:21.536Z,9.59
2018-04-01T12:06:21.347Z,9.74
2018-04-01T12:07:21.398Z,10.29
2018-04-01T12:08:21.208Z,10.42
2018-04-01T12:09:21.216Z,10.57
2018-04-01T12:10:21.026Z,11.16
2018-04-01T12:11:21.038Z,11.35
2018-04-01T12:12:20.866Z,12.29
2018-04-01T12:13:20.930Z,12.67
2018-04-01T12:14:20.726Z,12.96
2018-04-01T12:15:20.727Z,13.14
2018-04-01T12:16:20.609Z,12.99
2018-04-01T12:17:20.537Z,12.48
2018-04-01T12:18:20.412Z,12.04
2018-04-01T12:19:20.352Z,11.75
2018-04-01T12:20:20.237Z,11.44
2018-04-01T12:21:20.298Z,11.36
2018-04-01T12:22:20.093Z,11.49
2018-04-01T12:23:20.081Z,11.36
2018-04-01T12:24:19.918Z,11.30
2018-04-01T12:25:20.008Z,11.21
2018-04-01T12:26:19.791Z,11.09
2018-04-01T12:27:19.796Z,11.12
2018-04-01T12:28:19.678Z,11.09
2018-04-01T12:29:19.614Z,10.76
2018-04-01T12:30:19.533Z,10.36
2018-04-01T12:31:19.554Z,10.22
2018-04-01T12:32:19.312Z,10.01
2018-04-01T12:33:19.312Z,10.14
2018-04-01T12:34:19.139Z,10.07
2018-04-01T12:35:19.130Z,9.92
2018-04-01T12:36:18.986Z,9.89
2018-04-01T12:37:18.959Z,9.89
2018-04-01T12:38:18.821Z,10.07
2018-04-01T12:39:18.848Z,10.02
2018-04-01T12:40:18.659Z,9.99
2018-04-01T12:41:18.675Z,9.99
2018-04-01T12:42:18.523Z,9.83
2018-04-01T12:43:18.453Z,9.85
2018-04-01T12:44:18.354Z,9.74
2018-04-01T12:45:18.372Z,9.58
2018-04-01T12:46:18.178Z,9.59
2018-04-01T12:47:18.137Z,9.70
2018-04-01T12:48:18.021Z,9.65
2018-04-01T12:49:17.982Z,9.63
2018-04-01T12:50:17.868Z,9.81
2018-04-01T12:51:17.895Z,9.81
2018-04-01T12:52:17.737Z,9.70
2018-04-01T12:53:17.708Z,9.60
2018-04-01T12:54:17.547Z,9.59
2018-04-01T12:55:17.513Z,9.59
2018-04-01T12:56:17.397Z,9.63
2018-04-01T12:57:17.428Z,9.86
2018-04-01T12:58:17.277Z,9.81
2018-04-01T12:59:17.244Z,9.53
2018-04-01T13:00:17.076Z,9.60
2018-04-01T13:01:17.144Z,9.55
2018-04-01T13:02:16.925Z,9.48
2018-04-01T13:03:16.891Z,9.42
2018-04-01T13:04:16.809Z,9.49
2018-04-01T13:05:16.754Z,9.44
2018-04-01T13:06:16.590Z,9.34
2018-04-01T13:07:16.565Z,9.48
2018-04-01T13:08:16.463Z,9.37
2018-04-01T13:09:16.481Z,9.41
2018-04-01T13:10:16.269Z,9.48
2018-04-01T13:11:16.280Z,9.63
2018-04-01T13:12:16.145Z,9.73
2018-04-01T13:13:16.136Z,9.88
2018-04-01T13:14:15.964Z,10.06
2018-04-01T13:15:15.916Z,10.10
2018-04-01T13:16:15.788Z,10.39
2018-04-01T13:17:15.828Z,10.54
2018-04-01T13:18:15.644Z,10.60
2018-04-01T13:19:15.671Z,10.66
2018-04-01T13:20:15.464Z,10.60
2018-04-01T13:21:15.441Z,10.78
2018-04-01T13:22:15.312Z,10.98
2018-04-01T13:23:15.349Z,11.20
2018-04-01T13:24:15.290Z,11.16
2018-04-01T13:25:15.157Z,11.02
2018-04-01T13:26:14.992Z,10.94
2018-04-01T13:27:14.961Z,11.03
2018-04-01T13:28:14.860Z,10.88
2018-04-01T13:29:14.916Z,10.94
2018-04-01T13:30:14.687Z,11.20
2018-04-01T13:31:14.674Z,11.05
2018-04-01T13:32:14.528Z,11.02
2018-04-01T13:33:14.481Z,10.75
2018-04-01T13:34:14.382Z,10.87
2018-04-01T13:35:14.410Z,10.87
2018-04-01T13:36:14.258Z,10.78
2018-04-01T13:37:14.347Z,10.78
2018-04-01T13:38:14.051Z,10.57
2018-04-01T13:39:14.057Z,10.31
2018-04-01T13:40:13.916Z,10.28
2018-04-01T13:41:13.822Z,10.28
2018-04-01T13:42:13.722Z,10.34
2018-04-01T13:43:13.775Z,10.49
2018-04-01T13:44:13.585Z,10.68
2018-04-01T13:45:13.562Z,10.90